sensor_id;sensor_type;location;lat;lon;timestamp;P1;durP1;ratioP1;P2;durP2;ratioP2
23175;SDS011;19910;42.652;23.332;2023-12-22T00:02:20;0.40;;;0.40;;
23175;SDS011;19910;42.652;23.332;2023-12-22T00:04:48;0.20;;;0.20;;
23175;SDS011;19910;42.652;23.332;2023-12-22T00:07:15;0.70;;;0.40;;
23175;SDS011;19910;42.652;23.332;2023-12-22T00:09:42;0.93;;;0.73;;
23175;SDS011;19910;42.652;23.332;2023-12-22T00:12:10;0.30;;;0.30;;
23175;SDS011;19910;42.652;23.332;2023-12-22T00:14:37;8.32;;;3.33;;
23175;SDS011;19910;42.652;23.332;2023-12-22T00:17:05;6.72;;;3.10;;
23175;SDS011;19910;42.652;23.332;2023-12-22T00:19:32;7.00;;;3.92;;
23175;SDS011;19910;42.652;23.332;2023-12-22T00:21:59;9.05;;;4.13;;
23175;SDS011;19910;42.652;23.332;2023-12-22T00:24:28;6.35;;;3.10;;
23175;SDS011;19910;42.652;23.332;2023-12-22T00:26:55;6.45;;;3.20;;
23175;SDS011;19910;42.652;23.332;2023-12-22T00:29:23;5.85;;;2.90;;
23175;SDS011;19910;42.652;23.332;2023-12-22T00:31:50;0.20;;;0.20;;
23175;SDS011;19910;42.652;23.332;2023-12-22T00:34:16;0.20;;;0.20;;
23175;SDS011;19910;42.652;23.332;2023-12-22T00:36:44;0.57;;;0.57;;
23175;SDS011;19910;42.652;23.332;2023-12-22T00:39:11;0.20;;;0.20;;
23175;SDS011;19910;42.652;23.332;2023-12-22T00:41:38;1.23;;;1.08;;
23175;SDS011;19910;42.652;23.332;2023-12-22T00:44:05;0.30;;;0.30;;
23175;SDS011;19910;42.652;23.332;2023-12-22T00:46:33;0.30;;;0.30;;
23175;SDS011;19910;42.652;23.332;2023-12-22T00:49:00;0.25;;;0.25;;
23175;SDS011;19910;42.652;23.332;2023-12-22T00:51:26;0.30;;;0.30;;
23175;SDS011;19910;42.652;23.332;2023-12-22T00:53:53;4.30;;;1.65;;
23175;SDS011;19910;42.652;23.332;2023-12-22T00:56:20;0.20;;;0.20;;
23175;SDS011;19910;42.652;23.332;2023-12-22T00:58:47;0.20;;;0.20;;
23175;SDS011;19910;42.652;23.332;2023-12-22T01:01:13;6.20;;;2.97;;
23175;SDS011;19910;42.652;23.332;2023-12-22T01:03:42;3.33;;;2.38;;
23175;SDS011;19910;42.652;23.332;2023-12-22T01:06:09;4.78;;;3.15;;
23175;SDS011;19910;42.652;23.332;2023-12-22T01:08:36;6.32;;;3.42;;
23175;SDS011;19910;42.652;23.332;2023-12-22T01:11:03;6.30;;;2.63;;
23175;SDS011;19910;42.652;23.332;2023-12-22T01:13:30;0.35;;;0.35;;
23175;SDS011;19910;42.652;23.332;2023-12-22T01:15:57;0.20;;;0.20;;
23175;SDS011;19910;42.652;23.332;2023-12-22T01:18:24;0.22;;;0.22;;
23175;SDS011;19910;42.652;23.332;2023-12-22T01:20:55;0.50;;;0.50;;
23175;SDS011;19910;42.652;23.332;2023-12-22T01:23:22;3.22;;;1.20;;
23175;SDS011;19910;42.652;23.332;2023-12-22T01:25:50;2.83;;;0.77;;
23175;SDS011;19910;42.652;23.332;2023-12-22T01:28:17;0.20;;;0.20;;
23175;SDS011;19910;42.652;23.332;2023-12-22T01:30:44;0.40;;;0.40;;
23175;SDS011;19910;42.652;23.332;2023-12-22T01:33:10;0.20;;;0.20;;
23175;SDS011;19910;42.652;23.332;2023-12-22T01:35:37;0.20;;;0.20;;
23175;SDS011;19910;42.652;23.332;2023-12-22T01:38:05;0.45;;;0.45;;
23175;SDS011;19910;42.652;23.332;2023-12-22T01:40:32;0.20;;;0.20;;
23175;SDS011;19910;42.652;23.332;2023-12-22T01:42:59;2.72;;;0.77;;
23175;SDS011;19910;42.652;23.332;2023-12-22T01:45:27;0.50;;;0.50;;
23175;SDS011;19910;42.652;23.332;2023-12-22T01:47:54;0.20;;;0.20;;
23175;SDS011;19910;42.652;23.332;2023-12-22T01:50:21;0.20;;;0.20;;
23175;SDS011;19910;42.652;23.332;2023-12-22T01:52:48;1.42;;;1.10;;
23175;SDS011;19910;42.652;23.332;2023-12-22T01:55:16;0.20;;;0.20;;
23175;SDS011;19910;42.652;23.332;2023-12-22T01:57:44;0.20;;;0.20;;
23175;SDS011;19910;42.652;23.332;2023-12-22T02:00:12;0.32;;;0.32;;
23175;SDS011;19910;42.652;23.332;2023-12-22T02:02:40;3.10;;;1.38;;
23175;SDS011;19910;42.652;23.332;2023-12-22T02:05:08;1.60;;;1.33;;
23175;SDS011;19910;42.652;23.332;2023-12-22T02:07:37;0.20;;;0.20;;
23175;SDS011;19910;42.652;23.332;2023-12-22T02:10:06;0.20;;;0.20;;
23175;SDS011;19910;42.652;23.332;2023-12-22T02:12:36;0.30;;;0.30;;
23175;SDS011;19910;42.652;23.332;2023-12-22T02:15:03;0.20;;;0.20;;
23175;SDS011;19910;42.652;23.332;2023-12-22T02:17:33;0.28;;;0.28;;
23175;SDS011;19910;42.652;23.332;2023-12-22T02:20:06;0.20;;;0.20;;
23175;SDS011;19910;42.652;23.332;2023-12-22T02:22:35;0.30;;;0.30;;
23175;SDS011;19910;42.652;23.332;2023-12-22T02:25:02;0.50;;;0.50;;
23175;SDS011;19910;42.652;23.332;2023-12-22T02:27:32;0.63;;;0.63;;
23175;SDS011;19910;42.652;23.332;2023-12-22T02:30:05;0.55;;;0.55;;
23175;SDS011;19910;42.652;23.332;2023-12-22T02:32:35;2.17;;;0.60;;
23175;SDS011;19910;42.652;23.332;2023-12-22T02:35:10;0.52;;;0.52;;
23175;SDS011;19910;42.652;23.332;2023-12-22T02:37:40;0.20;;;0.20;;
23175;SDS011;19910;42.652;23.332;2023-12-22T02:40:07;0.50;;;0.50;;
23175;SDS011;19910;42.652;23.332;2023-12-22T02:42:35;0.30;;;0.30;;
23175;SDS011;19910;42.652;23.332;2023-12-22T02:45:04;0.40;;;0.40;;
23175;SDS011;19910;42.652;23.332;2023-12-22T02:47:32;0.10;;;0.10;;
23175;SDS011;19910;42.652;23.332;2023-12-22T02:49:59;1.38;;;1.17;;
23175;SDS011;19910;42.652;23.332;2023-12-22T02:52:26;0.43;;;0.43;;
23175;SDS011;19910;42.652;23.332;2023-12-22T02:54:54;0.20;;;0.20;;
23175;SDS011;19910;42.652;23.332;2023-12-22T02:57:21;0.57;;;0.57;;
23175;SDS011;19910;42.652;23.332;2023-12-22T02:59:48;0.57;;;0.57;;
23175;SDS011;19910;42.652;23.332;2023-12-22T03:02:14;0.30;;;0.30;;
23175;SDS011;19910;42.652;23.332;2023-12-22T03:04:41;0.25;;;0.25;;
23175;SDS011;19910;42.652;23.332;2023-12-22T03:07:08;0.20;;;0.20;;
23175;SDS011;19910;42.652;23.332;2023-12-22T03:09:35;0.65;;;0.65;;
23175;SDS011;19910;42.652;23.332;2023-12-22T03:12:03;0.57;;;0.57;;
23175;SDS011;19910;42.652;23.332;2023-12-22T03:14:31;1.10;;;0.85;;
23175;SDS011;19910;42.652;23.332;2023-12-22T03:16:58;0.40;;;0.40;;
23175;SDS011;19910;42.652;23.332;2023-12-22T03:19:25;0.30;;;0.30;;
23175;SDS011;19910;42.652;23.332;2023-12-22T03:21:52;0.20;;;0.20;;
23175;SDS011;19910;42.652;23.332;2023-12-22T03:24:19;0.38;;;0.38;;
23175;SDS011;19910;42.652;23.332;2023-12-22T03:26:47;0.20;;;0.20;;
23175;SDS011;19910;42.652;23.332;2023-12-22T03:29:15;0.20;;;0.20;;
23175;SDS011;19910;42.652;23.332;2023-12-22T03:31:42;0.20;;;0.20;;
23175;SDS011;19910;42.652;23.332;2023-12-22T03:34:09;0.30;;;0.30;;
23175;SDS011;19910;42.652;23.332;2023-12-22T03:36:36;0.30;;;0.30;;
23175;SDS011;19910;42.652;23.332;2023-12-22T03:39:03;0.20;;;0.20;;
23175;SDS011;19910;42.652;23.332;2023-12-22T03:41:30;0.32;;;0.32;;
23175;SDS011;19910;42.652;23.332;2023-12-22T03:43:57;0.43;;;0.43;;
23175;SDS011;19910;42.652;23.332;2023-12-22T03:46:25;0.30;;;0.30;;
23175;SDS011;19910;42.652;23.332;2023-12-22T03:48:52;0.43;;;0.43;;
23175;SDS011;19910;42.652;23.332;2023-12-22T03:51:19;0.38;;;0.38;;
23175;SDS011;19910;42.652;23.332;2023-12-22T03:53:46;0.52;;;0.52;;
23175;SDS011;19910;42.652;23.332;2023-12-22T03:56:13;0.22;;;0.22;;
23175;SDS011;19910;42.652;23.332;2023-12-22T03:58:40;0.25;;;0.25;;
23175;SDS011;19910;42.652;23.332;2023-12-22T04:01:06;1.10;;;1.05;;
23175;SDS011;19910;42.652;23.332;2023-12-22T04:03:35;0.65;;;0.65;;
23175;SDS011;19910;42.652;23.332;2023-12-22T04:06:02;0.20;;;0.20;;
23175;SDS011;19910;42.652;23.332;2023-12-22T04:08:29;0.20;;;0.20;;
23175;SDS011;19910;42.652;23.332;2023-12-22T04:10:56;0.35;;;0.35;;
23175;SDS011;19910;42.652;23.332;2023-12-22T04:13:23;0.95;;;0.95;;
23175;SDS011;19910;42.652;23.332;2023-12-22T04:15:49;0.30;;;0.30;;
23175;SDS011;19910;42.652;23.332;2023-12-22T04:18:16;0.38;;;0.38;;
23175;SDS011;19910;42.652;23.332;2023-12-22T04:20:44;0.38;;;0.38;;
23175;SDS011;19910;42.652;23.332;2023-12-22T04:23:11;0.70;;;0.70;;
23175;SDS011;19910;42.652;23.332;2023-12-22T04:25:38;0.30;;;0.30;;
23175;SDS011;19910;42.652;23.332;2023-12-22T04:28:05;0.40;;;0.40;;
23175;SDS011;19910;42.652;23.332;2023-12-22T04:30:32;0.30;;;0.30;;
23175;SDS011;19910;42.652;23.332;2023-12-22T04:32:59;0.30;;;0.30;;
23175;SDS011;19910;42.652;23.332;2023-12-22T04:35:26;0.95;;;0.95;;
23175;SDS011;19910;42.652;23.332;2023-12-22T04:37:54;1.17;;;1.15;;
23175;SDS011;19910;42.652;23.332;2023-12-22T04:40:21;0.68;;;0.68;;
23175;SDS011;19910;42.652;23.332;2023-12-22T04:42:48;0.20;;;0.20;;
23175;SDS011;19910;42.652;23.332;2023-12-22T04:45:15;0.22;;;0.22;;
23175;SDS011;19910;42.652;23.332;2023-12-22T04:47:43;0.60;;;0.60;;
23175;SDS011;19910;42.652;23.332;2023-12-22T04:50:10;0.75;;;0.75;;
23175;SDS011;19910;42.652;23.332;2023-12-22T04:52:37;0.30;;;0.30;;
23175;SDS011;19910;42.652;23.332;2023-12-22T04:55:06;0.28;;;0.28;;
23175;SDS011;19910;42.652;23.332;2023-12-22T04:57:33;0.20;;;0.20;;
23175;SDS011;19910;42.652;23.332;2023-12-22T04:59:59;0.85;;;0.85;;
23175;SDS011;19910;42.652;23.332;2023-12-22T05:02:27;0.30;;;0.30;;
23175;SDS011;19910;42.652;23.332;2023-12-22T05:04:54;0.20;;;0.20;;
23175;SDS011;19910;42.652;23.332;2023-12-22T05:07:21;0.20;;;0.20;;
23175;SDS011;19910;42.652;23.332;2023-12-22T05:09:48;1.88;;;1.75;;
23175;SDS011;19910;42.652;23.332;2023-12-22T05:12:16;0.30;;;0.30;;
23175;SDS011;19910;42.652;23.332;2023-12-22T05:14:43;3.05;;;1.02;;
23175;SDS011;19910;42.652;23.332;2023-12-22T05:17:10;0.22;;;0.22;;
23175;SDS011;19910;42.652;23.332;2023-12-22T05:19:37;0.20;;;0.20;;
23175;SDS011;19910;42.652;23.332;2023-12-22T05:22:04;0.80;;;0.80;;
23175;SDS011;19910;42.652;23.332;2023-12-22T05:24:31;0.40;;;0.40;;
23175;SDS011;19910;42.652;23.332;2023-12-22T05:26:58;0.60;;;0.60;;
23175;SDS011;19910;42.652;23.332;2023-12-22T05:31:53;0.20;;;0.20;;
23175;SDS011;19910;42.652;23.332;2023-12-22T05:34:20;0.75;;;0.75;;
23175;SDS011;19910;42.652;23.332;2023-12-22T05:36:47;0.20;;;0.20;;
23175;SDS011;19910;42.652;23.332;2023-12-22T05:39:14;0.40;;;0.40;;
23175;SDS011;19910;42.652;23.332;2023-12-22T05:41:41;0.20;;;0.20;;
23175;SDS011;19910;42.652;23.332;2023-12-22T05:44:08;2.97;;;0.60;;
23175;SDS011;19910;42.652;23.332;2023-12-22T05:46:35;0.30;;;0.30;;
23175;SDS011;19910;42.652;23.332;2023-12-22T05:49:04;0.20;;;0.20;;
23175;SDS011;19910;42.652;23.332;2023-12-22T05:51:35;0.35;;;0.35;;
23175;SDS011;19910;42.652;23.332;2023-12-22T05:54:04;0.20;;;0.20;;
23175;SDS011;19910;42.652;23.332;2023-12-22T05:56:31;0.20;;;0.20;;
23175;SDS011;19910;42.652;23.332;2023-12-22T05:58:59;0.63;;;0.63;;
23175;SDS011;19910;42.652;23.332;2023-12-22T06:01:26;1.15;;;1.15;;
23175;SDS011;19910;42.652;23.332;2023-12-22T06:03:53;0.93;;;0.93;;
23175;SDS011;19910;42.652;23.332;2023-12-22T06:06:21;0.50;;;0.50;;
23175;SDS011;19910;42.652;23.332;2023-12-22T06:08:48;0.63;;;0.63;;
23175;SDS011;19910;42.652;23.332;2023-12-22T06:11:15;1.33;;;0.77;;
23175;SDS011;19910;42.652;23.332;2023-12-22T06:13:42;0.77;;;0.77;;
23175;SDS011;19910;42.652;23.332;2023-12-22T06:16:11;0.43;;;0.43;;
23175;SDS011;19910;42.652;23.332;2023-12-22T06:18:39;0.20;;;0.20;;
23175;SDS011;19910;42.652;23.332;2023-12-22T06:21:06;0.82;;;0.82;;
23175;SDS011;19910;42.652;23.332;2023-12-22T06:23:34;0.20;;;0.20;;
23175;SDS011;19910;42.652;23.332;2023-12-22T06:26:01;0.45;;;0.45;;
23175;SDS011;19910;42.652;23.332;2023-12-22T06:28:28;0.30;;;0.30;;
23175;SDS011;19910;42.652;23.332;2023-12-22T06:30:55;0.10;;;0.10;;
23175;SDS011;19910;42.652;23.332;2023-12-22T06:33:22;0.47;;;0.47;;
23175;SDS011;19910;42.652;23.332;2023-12-22T06:35:49;0.30;;;0.30;;
23175;SDS011;19910;42.652;23.332;2023-12-22T06:38:18;0.63;;;0.63;;
23175;SDS011;19910;42.652;23.332;2023-12-22T06:40:47;2.25;;;2.05;;
23175;SDS011;19910;42.652;23.332;2023-12-22T06:43:13;0.20;;;0.20;;
23175;SDS011;19910;42.652;23.332;2023-12-22T06:45:40;0.40;;;0.40;;
23175;SDS011;19910;42.652;23.332;2023-12-22T06:48:07;0.63;;;0.63;;
23175;SDS011;19910;42.652;23.332;2023-12-22T06:50:36;0.57;;;0.57;;
23175;SDS011;19910;42.652;23.332;2023-12-22T06:53:04;0.65;;;0.65;;
23175;SDS011;19910;42.652;23.332;2023-12-22T06:55:32;0.60;;;0.45;;
23175;SDS011;19910;42.652;23.332;2023-12-22T06:58:01;6.13;;;1.17;;
23175;SDS011;19910;42.652;23.332;2023-12-22T07:00:27;3.53;;;1.10;;
23175;SDS011;19910;42.652;23.332;2023-12-22T07:02:54;0.40;;;0.40;;
23175;SDS011;19910;42.652;23.332;2023-12-22T07:05:32;0.38;;;0.38;;
23175;SDS011;19910;42.652;23.332;2023-12-22T07:08:05;0.30;;;0.30;;
23175;SDS011;19910;42.652;23.332;2023-12-22T07:10:52;1.30;;;1.20;;
23175;SDS011;19910;42.652;23.332;2023-12-22T07:13:21;0.47;;;0.47;;
23175;SDS011;19910;42.652;23.332;2023-12-22T07:15:47;0.35;;;0.35;;
23175;SDS011;19910;42.652;23.332;2023-12-22T07:18:15;0.30;;;0.30;;
23175;SDS011;19910;42.652;23.332;2023-12-22T07:20:41;0.52;;;0.52;;
23175;SDS011;19910;42.652;23.332;2023-12-22T07:23:09;0.20;;;0.20;;
23175;SDS011;19910;42.652;23.332;2023-12-22T07:25:36;0.50;;;0.50;;
23175;SDS011;19910;42.652;23.332;2023-12-22T07:28:03;0.20;;;0.20;;
23175;SDS011;19910;42.652;23.332;2023-12-22T07:30:32;0.77;;;0.77;;
23175;SDS011;19910;42.652;23.332;2023-12-22T07:32:59;4.78;;;2.28;;
23175;SDS011;19910;42.652;23.332;2023-12-22T07:35:26;0.30;;;0.30;;
23175;SDS011;19910;42.652;23.332;2023-12-22T07:37:54;0.90;;;0.73;;
23175;SDS011;19910;42.652;23.332;2023-12-22T07:40:22;0.57;;;0.57;;
23175;SDS011;19910;42.652;23.332;2023-12-22T07:42:49;0.30;;;0.30;;
23175;SDS011;19910;42.652;23.332;2023-12-22T07:45:19;0.20;;;0.20;;
23175;SDS011;19910;42.652;23.332;2023-12-22T07:47:47;1.15;;;0.90;;
23175;SDS011;19910;42.652;23.332;2023-12-22T07:50:14;0.47;;;0.47;;
23175;SDS011;19910;42.652;23.332;2023-12-22T07:52:41;0.68;;;0.68;;
23175;SDS011;19910;42.652;23.332;2023-12-22T07:55:09;0.60;;;0.60;;
23175;SDS011;19910;42.652;23.332;2023-12-22T07:57:36;0.20;;;0.20;;
23175;SDS011;19910;42.652;23.332;2023-12-22T08:00:03;0.93;;;0.93;;
23175;SDS011;19910;42.652;23.332;2023-12-22T08:02:31;0.52;;;0.52;;
23175;SDS011;19910;42.652;23.332;2023-12-22T08:05:00;0.30;;;0.30;;
23175;SDS011;19910;42.652;23.332;2023-12-22T08:07:27;0.35;;;0.35;;
23175;SDS011;19910;42.652;23.332;2023-12-22T08:09:54;0.55;;;0.55;;
23175;SDS011;19910;42.652;23.332;2023-12-22T08:12:22;5.43;;;1.42;;
23175;SDS011;19910;42.652;23.332;2023-12-22T08:14:49;0.50;;;0.50;;
23175;SDS011;19910;42.652;23.332;2023-12-22T08:17:15;0.25;;;0.25;;
23175;SDS011;19910;42.652;23.332;2023-12-22T08:19:42;0.28;;;0.28;;
23175;SDS011;19910;42.652;23.332;2023-12-22T08:22:11;0.32;;;0.32;;
23175;SDS011;19910;42.652;23.332;2023-12-22T08:24:38;0.40;;;0.40;;
23175;SDS011;19910;42.652;23.332;2023-12-22T08:27:06;0.30;;;0.30;;
23175;SDS011;19910;42.652;23.332;2023-12-22T08:29:33;0.93;;;0.90;;
23175;SDS011;19910;42.652;23.332;2023-12-22T08:32:01;1.95;;;0.68;;
23175;SDS011;19910;42.652;23.332;2023-12-22T08:34:29;0.20;;;0.20;;
23175;SDS011;19910;42.652;23.332;2023-12-22T08:36:56;0.77;;;0.77;;
23175;SDS011;19910;42.652;23.332;2023-12-22T08:39:24;1.63;;;1.38;;
23175;SDS011;19910;42.652;23.332;2023-12-22T08:41:51;0.35;;;0.35;;
23175;SDS011;19910;42.652;23.332;2023-12-22T08:44:18;0.40;;;0.40;;
23175;SDS011;19910;42.652;23.332;2023-12-22T08:46:45;0.45;;;0.45;;
23175;SDS011;19910;42.652;23.332;2023-12-22T08:49:12;0.20;;;0.20;;
23175;SDS011;19910;42.652;23.332;2023-12-22T08:51:39;0.90;;;0.82;;
23175;SDS011;19910;42.652;23.332;2023-12-22T08:54:06;0.30;;;0.30;;
23175;SDS011;19910;42.652;23.332;2023-12-22T08:56:34;0.32;;;0.32;;
23175;SDS011;19910;42.652;23.332;2023-12-22T08:59:01;1.00;;;1.00;;
23175;SDS011;19910;42.652;23.332;2023-12-22T09:01:28;0.63;;;0.63;;
23175;SDS011;19910;42.652;23.332;2023-12-22T09:03:55;0.50;;;0.50;;
23175;SDS011;19910;42.652;23.332;2023-12-22T09:06:22;0.30;;;0.30;;
23175;SDS011;19910;42.652;23.332;2023-12-22T09:08:49;0.30;;;0.30;;
23175;SDS011;19910;42.652;23.332;2023-12-22T09:11:19;0.52;;;0.52;;
23175;SDS011;19910;42.652;23.332;2023-12-22T09:13:48;0.43;;;0.43;;
23175;SDS011;19910;42.652;23.332;2023-12-22T09:16:19;1.48;;;1.20;;
23175;SDS011;19910;42.652;23.332;2023-12-22T09:18:47;0.50;;;0.50;;
23175;SDS011;19910;42.652;23.332;2023-12-22T09:21:14;0.20;;;0.20;;
23175;SDS011;19910;42.652;23.332;2023-12-22T09:23:43;0.52;;;0.52;;
23175;SDS011;19910;42.652;23.332;2023-12-22T09:26:11;0.50;;;0.50;;
23175;SDS011;19910;42.652;23.332;2023-12-22T09:28:38;0.30;;;0.30;;
23175;SDS011;19910;42.652;23.332;2023-12-22T09:31:07;0.57;;;0.57;;
23175;SDS011;19910;42.652;23.332;2023-12-22T09:33:34;0.32;;;0.32;;
23175;SDS011;19910;42.652;23.332;2023-12-22T09:36:02;1.83;;;1.42;;
23175;SDS011;19910;42.652;23.332;2023-12-22T09:38:29;0.55;;;0.55;;
23175;SDS011;19910;42.652;23.332;2023-12-22T09:40:57;1.85;;;1.33;;
23175;SDS011;19910;42.652;23.332;2023-12-22T09:43:24;1.08;;;0.77;;
23175;SDS011;19910;42.652;23.332;2023-12-22T09:45:52;0.20;;;0.20;;
23175;SDS011;19910;42.652;23.332;2023-12-22T09:48:24;0.90;;;0.57;;
23175;SDS011;19910;42.652;23.332;2023-12-22T09:50:53;0.65;;;0.65;;
23175;SDS011;19910;42.652;23.332;2023-12-22T09:53:20;0.30;;;0.30;;
23175;SDS011;19910;42.652;23.332;2023-12-22T09:55:48;0.30;;;0.30;;
23175;SDS011;19910;42.652;23.332;2023-12-22T09:58:16;0.80;;;0.40;;
23175;SDS011;19910;42.652;23.332;2023-12-22T10:00:43;0.38;;;0.38;;
23175;SDS011;19910;42.652;23.332;2023-12-22T10:03:11;0.30;;;0.30;;
23175;SDS011;19910;42.652;23.332;2023-12-22T10:05:40;0.20;;;0.20;;
23175;SDS011;19910;42.652;23.332;2023-12-22T10:08:08;0.22;;;0.22;;
23175;SDS011;19910;42.652;23.332;2023-12-22T10:10:37;0.22;;;0.22;;
23175;SDS011;19910;42.652;23.332;2023-12-22T10:13:04;0.30;;;0.30;;
23175;SDS011;19910;42.652;23.332;2023-12-22T10:15:35;0.75;;;0.75;;
23175;SDS011;19910;42.652;23.332;2023-12-22T10:18:06;0.57;;;0.57;;
23175;SDS011;19910;42.652;23.332;2023-12-22T10:20:33;4.32;;;1.50;;
23175;SDS011;19910;42.652;23.332;2023-12-22T10:23:03;0.70;;;0.70;;
23175;SDS011;19910;42.652;23.332;2023-12-22T10:25:31;0.20;;;0.20;;
23175;SDS011;19910;42.652;23.332;2023-12-22T10:27:58;0.40;;;0.40;;
23175;SDS011;19910;42.652;23.332;2023-12-22T10:30:25;0.93;;;0.93;;
23175;SDS011;19910;42.652;23.332;2023-12-22T10:32:54;2.55;;;0.70;;
23175;SDS011;19910;42.652;23.332;2023-12-22T10:35:21;0.90;;;0.90;;
23175;SDS011;19910;42.652;23.332;2023-12-22T10:37:49;0.40;;;0.40;;
23175;SDS011;19910;42.652;23.332;2023-12-22T10:40:20;0.80;;;0.80;;
23175;SDS011;19910;42.652;23.332;2023-12-22T10:42:47;1.55;;;1.45;;
23175;SDS011;19910;42.652;23.332;2023-12-22T10:45:15;2.30;;;1.45;;
23175;SDS011;19910;42.652;23.332;2023-12-22T10:47:44;0.55;;;0.55;;
23175;SDS011;19910;42.652;23.332;2023-12-22T10:50:11;0.30;;;0.30;;
23175;SDS011;19910;42.652;23.332;2023-12-22T10:52:39;0.80;;;0.80;;
23175;SDS011;19910;42.652;23.332;2023-12-22T10:55:06;0.80;;;0.80;;
23175;SDS011;19910;42.652;23.332;2023-12-22T10:57:35;1.45;;;1.00;;
23175;SDS011;19910;42.652;23.332;2023-12-22T11:00:04;1.48;;;1.48;;
23175;SDS011;19910;42.652;23.332;2023-12-22T11:02:33;0.38;;;0.38;;
23175;SDS011;19910;42.652;23.332;2023-12-22T11:05:01;1.13;;;1.13;;
23175;SDS011;19910;42.652;23.332;2023-12-22T11:07:30;0.88;;;0.88;;
23175;SDS011;19910;42.652;23.332;2023-12-22T11:10:02;0.55;;;0.55;;
23175;SDS011;19910;42.652;23.332;2023-12-22T11:12:31;1.90;;;1.75;;
23175;SDS011;19910;42.652;23.332;2023-12-22T11:15:00;2.33;;;1.48;;
23175;SDS011;19910;42.652;23.332;2023-12-22T11:17:28;0.50;;;0.50;;
23175;SDS011;19910;42.652;23.332;2023-12-22T11:19:57;0.68;;;0.68;;
23175;SDS011;19910;42.652;23.332;2023-12-22T11:22:24;0.52;;;0.52;;
23175;SDS011;19910;42.652;23.332;2023-12-22T11:24:52;1.10;;;1.10;;
23175;SDS011;19910;42.652;23.332;2023-12-22T11:27:22;1.85;;;1.30;;
23175;SDS011;19910;42.652;23.332;2023-12-22T11:29:52;0.40;;;0.40;;
23175;SDS011;19910;42.652;23.332;2023-12-22T11:32:20;0.57;;;0.57;;
23175;SDS011;19910;42.652;23.332;2023-12-22T11:34:50;0.20;;;0.20;;
23175;SDS011;19910;42.652;23.332;2023-12-22T11:37:18;0.20;;;0.20;;
23175;SDS011;19910;42.652;23.332;2023-12-22T11:39:50;0.30;;;0.30;;
23175;SDS011;19910;42.652;23.332;2023-12-22T11:42:18;0.20;;;0.20;;
23175;SDS011;19910;42.652;23.332;2023-12-22T11:44:49;0.30;;;0.30;;
23175;SDS011;19910;42.652;23.332;2023-12-22T11:47:16;0.55;;;0.40;;
23175;SDS011;19910;42.652;23.332;2023-12-22T11:49:47;0.20;;;0.20;;
23175;SDS011;19910;42.652;23.332;2023-12-22T11:52:16;0.20;;;0.20;;
23175;SDS011;19910;42.652;23.332;2023-12-22T11:54:45;0.25;;;0.25;;
23175;SDS011;19910;42.652;23.332;2023-12-22T11:57:29;0.20;;;0.20;;
23175;SDS011;19910;42.652;23.332;2023-12-22T11:59:55;0.30;;;0.30;;
23175;SDS011;19910;42.652;23.332;2023-12-22T12:02:22;0.30;;;0.30;;
23175;SDS011;19910;42.652;23.332;2023-12-22T12:04:51;0.20;;;0.20;;
23175;SDS011;19910;42.652;23.332;2023-12-22T12:10:50;0.30;;;0.30;;
23175;SDS011;19910;42.652;23.332;2023-12-22T12:13:21;0.20;;;0.20;;
23175;SDS011;19910;42.652;23.332;2023-12-22T12:15:49;1.08;;;0.98;;
23175;SDS011;19910;42.652;23.332;2023-12-22T12:18:17;0.20;;;0.20;;
23175;SDS011;19910;42.652;23.332;2023-12-22T12:20:50;0.20;;;0.20;;
23175;SDS011;19910;42.652;23.332;2023-12-22T12:23:17;0.20;;;0.20;;
23175;SDS011;19910;42.652;23.332;2023-12-22T12:25:44;0.20;;;0.20;;
23175;SDS011;19910;42.652;23.332;2023-12-22T12:28:10;0.30;;;0.30;;
23175;SDS011;19910;42.652;23.332;2023-12-22T12:30:39;0.20;;;0.20;;
23175;SDS011;19910;42.652;23.332;2023-12-22T12:33:07;0.20;;;0.20;;
23175;SDS011;19910;42.652;23.332;2023-12-22T12:35:35;0.20;;;0.20;;
23175;SDS011;19910;42.652;23.332;2023-12-22T12:38:04;0.20;;;0.20;;
23175;SDS011;19910;42.652;23.332;2023-12-22T12:40:31;0.20;;;0.20;;
23175;SDS011;19910;42.652;23.332;2023-12-22T12:43:00;0.20;;;0.20;;
23175;SDS011;19910;42.652;23.332;2023-12-22T12:45:27;0.20;;;0.20;;
23175;SDS011;19910;42.652;23.332;2023-12-22T12:47:55;0.20;;;0.20;;
23175;SDS011;19910;42.652;23.332;2023-12-22T12:50:23;0.20;;;0.20;;
23175;SDS011;19910;42.652;23.332;2023-12-22T12:52:50;0.20;;;0.20;;
23175;SDS011;19910;42.652;23.332;2023-12-22T12:55:20;0.20;;;0.20;;
23175;SDS011;19910;42.652;23.332;2023-12-22T12:57:48;0.20;;;0.20;;
23175;SDS011;19910;42.652;23.332;2023-12-22T13:00:16;0.20;;;0.20;;
23175;SDS011;19910;42.652;23.332;2023-12-22T13:02:43;0.10;;;0.10;;
23175;SDS011;19910;42.652;23.332;2023-12-22T13:05:19;0.17;;;0.17;;
23175;SDS011;19910;42.652;23.332;2023-12-22T13:07:46;0.20;;;0.20;;
23175;SDS011;19910;42.652;23.332;2023-12-22T13:10:21;0.20;;;0.20;;
23175;SDS011;19910;42.652;23.332;2023-12-22T13:12:50;0.88;;;0.88;;
23175;SDS011;19910;42.652;23.332;2023-12-22T13:15:19;0.20;;;0.20;;
23175;SDS011;19910;42.652;23.332;2023-12-22T13:17:46;0.20;;;0.20;;
23175;SDS011;19910;42.652;23.332;2023-12-22T13:20:13;0.20;;;0.20;;
23175;SDS011;19910;42.652;23.332;2023-12-22T13:22:40;0.17;;;0.17;;
23175;SDS011;19910;42.652;23.332;2023-12-22T13:25:08;0.30;;;0.28;;
23175;SDS011;19910;42.652;23.332;2023-12-22T13:30:33;0.70;;;0.47;;
23175;SDS011;19910;42.652;23.332;2023-12-22T13:33:01;0.20;;;0.20;;
23175;SDS011;19910;42.652;23.332;2023-12-22T13:35:28;0.20;;;0.20;;
23175;SDS011;19910;42.652;23.332;2023-12-22T13:37:55;0.20;;;0.20;;
23175;SDS011;19910;42.652;23.332;2023-12-22T13:40:22;0.40;;;0.40;;
23175;SDS011;19910;42.652;23.332;2023-12-22T13:42:54;0.20;;;0.20;;
23175;SDS011;19910;42.652;23.332;2023-12-22T13:45:23;0.10;;;0.10;;
23175;SDS011;19910;42.652;23.332;2023-12-22T13:47:50;0.20;;;0.20;;
23175;SDS011;19910;42.652;23.332;2023-12-22T13:50:17;0.20;;;0.20;;
23175;SDS011;19910;42.652;23.332;2023-12-22T13:52:48;0.20;;;0.20;;
23175;SDS011;19910;42.652;23.332;2023-12-22T13:55:16;0.20;;;0.20;;
23175;SDS011;19910;42.652;23.332;2023-12-22T13:57:44;0.20;;;0.20;;
23175;SDS011;19910;42.652;23.332;2023-12-22T14:00:29;0.20;;;0.20;;
23175;SDS011;19910;42.652;23.332;2023-12-22T14:02:56;0.20;;;0.20;;
23175;SDS011;19910;42.652;23.332;2023-12-22T14:05:24;0.20;;;0.20;;
23175;SDS011;19910;42.652;23.332;2023-12-22T14:07:51;0.50;;;0.50;;
23175;SDS011;19910;42.652;23.332;2023-12-22T14:10:21;0.20;;;0.20;;
23175;SDS011;19910;42.652;23.332;2023-12-22T14:12:48;0.20;;;0.20;;
23175;SDS011;19910;42.652;23.332;2023-12-22T14:15:16;0.20;;;0.20;;
23175;SDS011;19910;42.652;23.332;2023-12-22T14:17:44;0.20;;;0.20;;
23175;SDS011;19910;42.652;23.332;2023-12-22T14:20:11;0.47;;;0.47;;
23175;SDS011;19910;42.652;23.332;2023-12-22T14:22:38;0.20;;;0.20;;
23175;SDS011;19910;42.652;23.332;2023-12-22T14:25:06;0.20;;;0.20;;
23175;SDS011;19910;42.652;23.332;2023-12-22T14:27:34;0.20;;;0.20;;
23175;SDS011;19910;42.652;23.332;2023-12-22T14:30:01;0.20;;;0.20;;
23175;SDS011;19910;42.652;23.332;2023-12-22T14:32:28;0.20;;;0.20;;
23175;SDS011;19910;42.652;23.332;2023-12-22T14:34:57;0.20;;;0.20;;
23175;SDS011;19910;42.652;23.332;2023-12-22T14:37:24;0.73;;;0.73;;
23175;SDS011;19910;42.652;23.332;2023-12-22T14:39:51;0.20;;;0.20;;
23175;SDS011;19910;42.652;23.332;2023-12-22T14:42:18;0.95;;;0.95;;
23175;SDS011;19910;42.652;23.332;2023-12-22T14:44:45;0.20;;;0.20;;
23175;SDS011;19910;42.652;23.332;2023-12-22T14:47:11;0.30;;;0.30;;